sensor_id;sensor_type;location;lat;lon;timestamp;P1;durP1;ratioP1;P2;durP2;ratioP2
19788;SDS011;10054;59.332;18.244;2022-10-16T00:01:46;18.53;;;13.63;;
19788;SDS011;10054;59.332;18.244;2022-10-16T00:04:15;17.77;;;14.33;;
19788;SDS011;10054;59.332;18.244;2022-10-16T00:06:44;19.27;;;14.77;;
19788;SDS011;10054;59.332;18.244;2022-10-16T00:09:13;15.77;;;13.10;;
19788;SDS011;10054;59.332;18.244;2022-10-16T00:11:42;15.10;;;12.67;;
19788;SDS011;10054;59.332;18.244;2022-10-16T00:14:12;14.10;;;11.97;;
19788;SDS011;10054;59.332;18.244;2022-10-16T00:16:42;14.47;;;11.80;;
19788;SDS011;10054;59.332;18.244;2022-10-16T00:19:11;13.90;;;11.70;;
19788;SDS011;10054;59.332;18.244;2022-10-16T00:21:40;14.63;;;12.73;;
19788;SDS011;10054;59.332;18.244;2022-10-16T00:24:09;15.07;;;11.80;;
19788;SDS011;10054;59.332;18.244;2022-10-16T00:26:38;15.30;;;11.77;;
19788;SDS011;10054;59.332;18.244;2022-10-16T00:29:08;15.10;;;11.63;;
19788;SDS011;10054;59.332;18.244;2022-10-16T00:31:37;12.40;;;10.53;;
19788;SDS011;10054;59.332;18.244;2022-10-16T00:34:05;13.87;;;10.97;;
19788;SDS011;10054;59.332;18.244;2022-10-16T00:36:34;13.37;;;10.80;;
19788;SDS011;10054;59.332;18.244;2022-10-16T00:39:03;12.93;;;10.97;;
19788;SDS011;10054;59.332;18.244;2022-10-16T00:41:32;16.07;;;10.33;;
19788;SDS011;10054;59.332;18.244;2022-10-16T00:44:03;15.67;;;10.90;;
19788;SDS011;10054;59.332;18.244;2022-10-16T00:46:37;11.73;;;10.53;;
19788;SDS011;10054;59.332;18.244;2022-10-16T00:49:11;11.83;;;10.43;;
19788;SDS011;10054;59.332;18.244;2022-10-16T00:51:40;12.20;;;11.00;;
19788;SDS011;10054;59.332;18.244;2022-10-16T00:54:13;13.33;;;10.13;;
19788;SDS011;10054;59.332;18.244;2022-10-16T00:56:49;11.73;;;10.50;;
19788;SDS011;10054;59.332;18.244;2022-10-16T00:59:29;11.57;;;10.37;;
19788;SDS011;10054;59.332;18.244;2022-10-16T01:01:53;12.73;;;10.53;;
19788;SDS011;10054;59.332;18.244;2022-10-16T01:04:23;12.13;;;9.63;;
19788;SDS011;10054;59.332;18.244;2022-10-16T01:07:05;12.40;;;9.77;;
19788;SDS011;10054;59.332;18.244;2022-10-16T01:10:33;11.23;;;10.10;;
19788;SDS011;10054;59.332;18.244;2022-10-16T01:12:57;18.90;;;9.97;;
19788;SDS011;10054;59.332;18.244;2022-10-16T01:15:27;13.30;;;10.07;;
19788;SDS011;10054;59.332;18.244;2022-10-16T01:21:06;12.13;;;10.33;;
19788;SDS011;10054;59.332;18.244;2022-10-16T01:26:24;11.93;;;10.57;;
19788;SDS011;10054;59.332;18.244;2022-10-16T01:29:08;12.83;;;11.37;;
19788;SDS011;10054;59.332;18.244;2022-10-16T01:31:45;11.20;;;9.77;;
19788;SDS011;10054;59.332;18.244;2022-10-16T01:34:20;13.50;;;10.73;;
19788;SDS011;10054;59.332;18.244;2022-10-16T01:36:51;13.60;;;11.23;;
19788;SDS011;10054;59.332;18.244;2022-10-16T01:39:28;11.97;;;10.37;;
19788;SDS011;10054;59.332;18.244;2022-10-16T01:42:01;12.00;;;10.53;;
19788;SDS011;10054;59.332;18.244;2022-10-16T01:44:32;10.83;;;9.73;;
19788;SDS011;10054;59.332;18.244;2022-10-16T01:47:04;14.10;;;10.83;;
19788;SDS011;10054;59.332;18.244;2022-10-16T01:49:35;13.10;;;10.80;;
19788;SDS011;10054;59.332;18.244;2022-10-16T01:52:08;13.13;;;10.60;;
19788;SDS011;10054;59.332;18.244;2022-10-16T01:54:39;15.43;;;10.87;;
19788;SDS011;10054;59.332;18.244;2022-10-16T01:57:10;13.20;;;10.93;;
19788;SDS011;10054;59.332;18.244;2022-10-16T01:59:46;13.37;;;10.53;;
19788;SDS011;10054;59.332;18.244;2022-10-16T02:02:11;11.13;;;9.90;;
19788;SDS011;10054;59.332;18.244;2022-10-16T02:04:43;11.87;;;10.53;;
19788;SDS011;10054;59.332;18.244;2022-10-16T02:07:17;12.07;;;10.87;;
19788;SDS011;10054;59.332;18.244;2022-10-16T02:09:46;13.23;;;10.90;;
19788;SDS011;10054;59.332;18.244;2022-10-16T02:12:15;12.43;;;10.30;;
19788;SDS011;10054;59.332;18.244;2022-10-16T02:14:46;14.57;;;11.20;;
19788;SDS011;10054;59.332;18.244;2022-10-16T02:17:16;14.73;;;11.50;;
19788;SDS011;10054;59.332;18.244;2022-10-16T02:19:46;13.47;;;11.40;;
19788;SDS011;10054;59.332;18.244;2022-10-16T02:22:27;15.00;;;11.43;;
19788;SDS011;10054;59.332;18.244;2022-10-16T02:25:04;12.37;;;11.00;;
19788;SDS011;10054;59.332;18.244;2022-10-16T02:30:11;16.60;;;11.30;;
19788;SDS011;10054;59.332;18.244;2022-10-16T02:32:43;16.00;;;11.37;;
19788;SDS011;10054;59.332;18.244;2022-10-16T02:35:15;13.17;;;11.67;;
19788;SDS011;10054;59.332;18.244;2022-10-16T02:37:46;14.20;;;12.00;;
19788;SDS011;10054;59.332;18.244;2022-10-16T02:40:16;15.83;;;12.27;;
19788;SDS011;10054;59.332;18.244;2022-10-16T02:42:49;15.43;;;12.17;;
19788;SDS011;10054;59.332;18.244;2022-10-16T02:45:18;12.60;;;11.30;;
19788;SDS011;10054;59.332;18.244;2022-10-16T02:47:48;16.47;;;11.37;;
19788;SDS011;10054;59.332;18.244;2022-10-16T02:50:17;14.00;;;11.47;;
19788;SDS011;10054;59.332;18.244;2022-10-16T02:52:46;15.23;;;11.60;;
19788;SDS011;10054;59.332;18.244;2022-10-16T02:55:15;13.90;;;11.27;;
19788;SDS011;10054;59.332;18.244;2022-10-16T02:57:44;12.63;;;9.97;;
19788;SDS011;10054;59.332;18.244;2022-10-16T03:00:13;13.77;;;11.70;;
19788;SDS011;10054;59.332;18.244;2022-10-16T03:02:44;11.57;;;10.33;;
19788;SDS011;10054;59.332;18.244;2022-10-16T03:05:13;13.00;;;10.27;;
19788;SDS011;10054;59.332;18.244;2022-10-16T03:07:42;11.17;;;10.13;;
19788;SDS011;10054;59.332;18.244;2022-10-16T03:10:11;13.37;;;9.67;;
19788;SDS011;10054;59.332;18.244;2022-10-16T03:12:40;11.70;;;9.37;;
19788;SDS011;10054;59.332;18.244;2022-10-16T03:15:09;10.67;;;8.67;;
19788;SDS011;10054;59.332;18.244;2022-10-16T03:17:38;9.53;;;8.53;;
19788;SDS011;10054;59.332;18.244;2022-10-16T03:20:07;8.83;;;7.93;;
19788;SDS011;10054;59.332;18.244;2022-10-16T03:22:36;9.60;;;8.50;;
19788;SDS011;10054;59.332;18.244;2022-10-16T03:25:05;10.40;;;8.67;;
19788;SDS011;10054;59.332;18.244;2022-10-16T03:27:36;9.87;;;7.67;;
19788;SDS011;10054;59.332;18.244;2022-10-16T03:30:28;9.30;;;8.50;;
19788;SDS011;10054;59.332;18.244;2022-10-16T03:32:58;8.40;;;7.17;;
19788;SDS011;10054;59.332;18.244;2022-10-16T03:35:34;9.33;;;7.80;;
19788;SDS011;10054;59.332;18.244;2022-10-16T03:38:04;9.20;;;7.57;;
19788;SDS011;10054;59.332;18.244;2022-10-16T03:40:32;7.37;;;6.67;;
19788;SDS011;10054;59.332;18.244;2022-10-16T03:43:01;8.33;;;7.43;;
19788;SDS011;10054;59.332;18.244;2022-10-16T03:45:30;8.00;;;6.97;;
19788;SDS011;10054;59.332;18.244;2022-10-16T03:47:59;8.07;;;7.27;;
19788;SDS011;10054;59.332;18.244;2022-10-16T03:50:29;9.43;;;7.20;;
19788;SDS011;10054;59.332;18.244;2022-10-16T03:52:58;7.80;;;6.87;;
19788;SDS011;10054;59.332;18.244;2022-10-16T03:55:26;8.83;;;7.00;;
19788;SDS011;10054;59.332;18.244;2022-10-16T03:57:55;7.17;;;6.57;;
19788;SDS011;10054;59.332;18.244;2022-10-16T04:00:24;8.50;;;6.97;;
19788;SDS011;10054;59.332;18.244;2022-10-16T04:02:53;8.67;;;6.17;;
19788;SDS011;10054;59.332;18.244;2022-10-16T04:05:22;7.43;;;5.90;;
19788;SDS011;10054;59.332;18.244;2022-10-16T04:07:52;6.47;;;5.93;;
19788;SDS011;10054;59.332;18.244;2022-10-16T04:10:21;6.60;;;6.07;;
19788;SDS011;10054;59.332;18.244;2022-10-16T04:12:50;6.70;;;6.07;;
19788;SDS011;10054;59.332;18.244;2022-10-16T04:15:20;9.37;;;6.00;;
19788;SDS011;10054;59.332;18.244;2022-10-16T04:17:50;8.20;;;6.33;;
19788;SDS011;10054;59.332;18.244;2022-10-16T04:20:20;7.00;;;6.30;;
19788;SDS011;10054;59.332;18.244;2022-10-16T04:22:48;6.60;;;6.00;;
19788;SDS011;10054;59.332;18.244;2022-10-16T04:25:17;6.87;;;6.20;;
19788;SDS011;10054;59.332;18.244;2022-10-16T04:27:46;6.20;;;5.60;;
19788;SDS011;10054;59.332;18.244;2022-10-16T04:30:37;7.53;;;6.73;;
19788;SDS011;10054;59.332;18.244;2022-10-16T04:33:08;7.07;;;5.90;;
19788;SDS011;10054;59.332;18.244;2022-10-16T04:35:37;6.80;;;6.10;;
19788;SDS011;10054;59.332;18.244;2022-10-16T04:38:05;6.80;;;6.07;;
19788;SDS011;10054;59.332;18.244;2022-10-16T04:40:34;7.10;;;5.77;;
19788;SDS011;10054;59.332;18.244;2022-10-16T04:43:03;6.90;;;5.80;;
19788;SDS011;10054;59.332;18.244;2022-10-16T04:45:38;8.80;;;6.17;;
19788;SDS011;10054;59.332;18.244;2022-10-16T04:48:06;7.07;;;5.70;;
19788;SDS011;10054;59.332;18.244;2022-10-16T04:50:35;9.37;;;5.90;;
19788;SDS011;10054;59.332;18.244;2022-10-16T04:53:09;6.73;;;5.80;;
19788;SDS011;10054;59.332;18.244;2022-10-16T04:55:37;9.53;;;6.03;;
19788;SDS011;10054;59.332;18.244;2022-10-16T04:58:06;7.00;;;5.80;;
19788;SDS011;10054;59.332;18.244;2022-10-16T05:00:35;6.70;;;5.27;;
19788;SDS011;10054;59.332;18.244;2022-10-16T05:03:04;6.23;;;5.73;;
19788;SDS011;10054;59.332;18.244;2022-10-16T05:05:35;5.67;;;5.07;;
19788;SDS011;10054;59.332;18.244;2022-10-16T05:08:04;6.20;;;5.60;;
19788;SDS011;10054;59.332;18.244;2022-10-16T05:10:33;10.43;;;6.20;;
19788;SDS011;10054;59.332;18.244;2022-10-16T05:13:02;7.43;;;5.70;;
19788;SDS011;10054;59.332;18.244;2022-10-16T05:15:31;5.87;;;5.40;;
19788;SDS011;10054;59.332;18.244;2022-10-16T05:18:00;7.23;;;5.70;;
19788;SDS011;10054;59.332;18.244;2022-10-16T05:20:29;6.33;;;5.77;;
19788;SDS011;10054;59.332;18.244;2022-10-16T05:23:05;6.53;;;5.50;;
19788;SDS011;10054;59.332;18.244;2022-10-16T05:25:36;5.97;;;5.37;;
19788;SDS011;10054;59.332;18.244;2022-10-16T05:28:05;7.00;;;5.27;;
19788;SDS011;10054;59.332;18.244;2022-10-16T05:30:34;7.10;;;6.20;;
19788;SDS011;10054;59.332;18.244;2022-10-16T05:33:05;8.13;;;5.80;;
19788;SDS011;10054;59.332;18.244;2022-10-16T05:35:33;6.30;;;5.70;;
19788;SDS011;10054;59.332;18.244;2022-10-16T05:38:02;7.17;;;5.90;;
19788;SDS011;10054;59.332;18.244;2022-10-16T05:40:32;6.77;;;6.00;;
19788;SDS011;10054;59.332;18.244;2022-10-16T05:43:02;8.17;;;5.90;;
19788;SDS011;10054;59.332;18.244;2022-10-16T05:45:31;10.60;;;6.43;;
19788;SDS011;10054;59.332;18.244;2022-10-16T05:48:00;6.73;;;6.03;;
19788;SDS011;10054;59.332;18.244;2022-10-16T05:50:29;6.83;;;6.23;;
19788;SDS011;10054;59.332;18.244;2022-10-16T05:52:57;6.90;;;5.70;;
19788;SDS011;10054;59.332;18.244;2022-10-16T05:55:26;7.10;;;6.27;;
19788;SDS011;10054;59.332;18.244;2022-10-16T05:57:55;8.43;;;6.33;;
19788;SDS011;10054;59.332;18.244;2022-10-16T06:00:24;8.00;;;7.17;;
19788;SDS011;10054;59.332;18.244;2022-10-16T06:02:54;7.83;;;6.97;;
19788;SDS011;10054;59.332;18.244;2022-10-16T06:05:22;11.63;;;7.27;;
19788;SDS011;10054;59.332;18.244;2022-10-16T06:07:51;9.97;;;7.67;;
19788;SDS011;10054;59.332;18.244;2022-10-16T06:10:20;8.93;;;8.00;;
19788;SDS011;10054;59.332;18.244;2022-10-16T06:12:49;9.53;;;7.87;;
19788;SDS011;10054;59.332;18.244;2022-10-16T06:15:18;9.53;;;7.93;;
19788;SDS011;10054;59.332;18.244;2022-10-16T06:17:47;9.43;;;7.70;;
19788;SDS011;10054;59.332;18.244;2022-10-16T06:20:15;11.57;;;8.53;;
19788;SDS011;10054;59.332;18.244;2022-10-16T06:22:44;8.87;;;7.97;;
19788;SDS011;10054;59.332;18.244;2022-10-16T06:25:13;11.10;;;8.87;;
19788;SDS011;10054;59.332;18.244;2022-10-16T06:27:42;11.03;;;8.90;;
19788;SDS011;10054;59.332;18.244;2022-10-16T06:30:11;13.30;;;10.23;;
19788;SDS011;10054;59.332;18.244;2022-10-16T06:32:40;12.43;;;8.93;;
19788;SDS011;10054;59.332;18.244;2022-10-16T06:35:09;13.97;;;10.10;;
19788;SDS011;10054;59.332;18.244;2022-10-16T06:37:38;12.17;;;9.97;;
19788;SDS011;10054;59.332;18.244;2022-10-16T06:40:07;11.03;;;9.83;;
19788;SDS011;10054;59.332;18.244;2022-10-16T06:42:36;12.33;;;10.03;;
19788;SDS011;10054;59.332;18.244;2022-10-16T06:45:05;12.10;;;9.63;;
19788;SDS011;10054;59.332;18.244;2022-10-16T06:47:34;12.07;;;10.53;;
19788;SDS011;10054;59.332;18.244;2022-10-16T06:50:04;12.87;;;10.23;;
19788;SDS011;10054;59.332;18.244;2022-10-16T06:52:34;11.53;;;10.33;;
19788;SDS011;10054;59.332;18.244;2022-10-16T06:55:03;13.23;;;10.13;;
19788;SDS011;10054;59.332;18.244;2022-10-16T06:57:32;12.43;;;10.07;;
19788;SDS011;10054;59.332;18.244;2022-10-16T07:00:01;13.33;;;10.07;;
19788;SDS011;10054;59.332;18.244;2022-10-16T07:02:31;11.20;;;9.53;;
19788;SDS011;10054;59.332;18.244;2022-10-16T07:05:00;12.83;;;10.60;;
19788;SDS011;10054;59.332;18.244;2022-10-16T07:07:29;10.70;;;9.67;;
19788;SDS011;10054;59.332;18.244;2022-10-16T07:09:58;12.03;;;10.73;;
19788;SDS011;10054;59.332;18.244;2022-10-16T07:12:27;12.80;;;10.10;;
19788;SDS011;10054;59.332;18.244;2022-10-16T07:14:56;11.33;;;9.93;;
19788;SDS011;10054;59.332;18.244;2022-10-16T07:17:25;14.63;;;10.33;;
19788;SDS011;10054;59.332;18.244;2022-10-16T07:19:53;15.17;;;11.00;;
19788;SDS011;10054;59.332;18.244;2022-10-16T07:22:22;11.50;;;10.30;;
19788;SDS011;10054;59.332;18.244;2022-10-16T07:24:51;12.03;;;10.03;;
19788;SDS011;10054;59.332;18.244;2022-10-16T07:27:20;13.50;;;10.37;;
19788;SDS011;10054;59.332;18.244;2022-10-16T07:29:50;13.23;;;11.10;;
19788;SDS011;10054;59.332;18.244;2022-10-16T07:32:19;13.73;;;11.33;;
19788;SDS011;10054;59.332;18.244;2022-10-16T07:34:48;15.50;;;11.60;;
19788;SDS011;10054;59.332;18.244;2022-10-16T07:37:17;14.13;;;11.57;;
19788;SDS011;10054;59.332;18.244;2022-10-16T07:39:46;13.37;;;11.43;;
19788;SDS011;10054;59.332;18.244;2022-10-16T07:42:15;15.60;;;11.90;;
19788;SDS011;10054;59.332;18.244;2022-10-16T07:44:43;13.30;;;11.00;;
19788;SDS011;10054;59.332;18.244;2022-10-16T07:47:12;12.33;;;9.93;;
19788;SDS011;10054;59.332;18.244;2022-10-16T07:49:41;14.57;;;11.10;;
19788;SDS011;10054;59.332;18.244;2022-10-16T07:52:10;12.13;;;10.57;;
19788;SDS011;10054;59.332;18.244;2022-10-16T07:54:38;15.03;;;10.60;;
19788;SDS011;10054;59.332;18.244;2022-10-16T07:57:08;11.50;;;10.33;;
19788;SDS011;10054;59.332;18.244;2022-10-16T07:59:36;10.77;;;9.50;;
19788;SDS011;10054;59.332;18.244;2022-10-16T08:02:07;11.10;;;8.90;;
19788;SDS011;10054;59.332;18.244;2022-10-16T08:04:35;9.00;;;7.97;;
19788;SDS011;10054;59.332;18.244;2022-10-16T08:07:04;8.90;;;7.83;;
19788;SDS011;10054;59.332;18.244;2022-10-16T08:09:35;9.27;;;8.00;;
19788;SDS011;10054;59.332;18.244;2022-10-16T08:12:04;7.63;;;6.83;;
19788;SDS011;10054;59.332;18.244;2022-10-16T08:14:33;9.00;;;7.33;;
19788;SDS011;10054;59.332;18.244;2022-10-16T08:17:02;8.37;;;6.80;;
19788;SDS011;10054;59.332;18.244;2022-10-16T08:19:30;8.63;;;6.90;;
19788;SDS011;10054;59.332;18.244;2022-10-16T08:22:01;8.57;;;7.00;;
19788;SDS011;10054;59.332;18.244;2022-10-16T08:24:29;7.83;;;6.20;;
19788;SDS011;10054;59.332;18.244;2022-10-16T08:26:59;6.67;;;6.07;;
19788;SDS011;10054;59.332;18.244;2022-10-16T08:29:28;6.17;;;5.57;;
19788;SDS011;10054;59.332;18.244;2022-10-16T08:31:57;7.47;;;5.50;;
19788;SDS011;10054;59.332;18.244;2022-10-16T08:34:25;8.43;;;5.40;;
19788;SDS011;10054;59.332;18.244;2022-10-16T08:36:54;6.10;;;4.97;;
19788;SDS011;10054;59.332;18.244;2022-10-16T08:39:23;5.50;;;4.67;;
19788;SDS011;10054;59.332;18.244;2022-10-16T08:41:59;7.30;;;4.90;;
19788;SDS011;10054;59.332;18.244;2022-10-16T08:47:26;5.37;;;4.33;;
19788;SDS011;10054;59.332;18.244;2022-10-16T08:50:00;6.90;;;4.50;;
19788;SDS011;10054;59.332;18.244;2022-10-16T08:52:32;5.50;;;4.23;;
19788;SDS011;10054;59.332;18.244;2022-10-16T08:55:02;5.87;;;4.13;;
19788;SDS011;10054;59.332;18.244;2022-10-16T08:57:32;4.67;;;4.27;;
19788;SDS011;10054;59.332;18.244;2022-10-16T09:00:08;4.20;;;3.90;;
19788;SDS011;10054;59.332;18.244;2022-10-16T09:02:38;5.33;;;4.43;;
19788;SDS011;10054;59.332;18.244;2022-10-16T09:08:08;6.37;;;4.17;;
19788;SDS011;10054;59.332;18.244;2022-10-16T09:10:56;5.90;;;4.30;;
19788;SDS011;10054;59.332;18.244;2022-10-16T09:13:13;4.37;;;3.97;;
19788;SDS011;10054;59.332;18.244;2022-10-16T09:16:00;7.83;;;3.97;;
19788;SDS011;10054;59.332;18.244;2022-10-16T09:18:37;6.80;;;3.97;;
19788;SDS011;10054;59.332;18.244;2022-10-16T09:21:28;5.27;;;3.70;;
19788;SDS011;10054;59.332;18.244;2022-10-16T09:26:45;4.70;;;3.73;;
19788;SDS011;10054;59.332;18.244;2022-10-16T09:29:19;4.23;;;3.80;;
19788;SDS011;10054;59.332;18.244;2022-10-16T09:31:50;4.20;;;3.80;;
19788;SDS011;10054;59.332;18.244;2022-10-16T09:34:24;4.13;;;3.33;;
19788;SDS011;10054;59.332;18.244;2022-10-16T09:36:53;5.97;;;3.50;;
19788;SDS011;10054;59.332;18.244;2022-10-16T09:39:24;3.77;;;3.20;;
19788;SDS011;10054;59.332;18.244;2022-10-16T09:41:53;5.90;;;3.73;;
19788;SDS011;10054;59.332;18.244;2022-10-16T09:44:24;3.83;;;3.10;;
19788;SDS011;10054;59.332;18.244;2022-10-16T09:47:02;5.20;;;3.30;;
19788;SDS011;10054;59.332;18.244;2022-10-16T09:49:31;4.27;;;3.00;;
19788;SDS011;10054;59.332;18.244;2022-10-16T09:52:13;4.57;;;3.17;;
19788;SDS011;10054;59.332;18.244;2022-10-16T09:54:53;4.93;;;3.13;;
19788;SDS011;10054;59.332;18.244;2022-10-16T09:57:26;4.77;;;2.80;;
19788;SDS011;10054;59.332;18.244;2022-10-16T09:59:57;5.57;;;2.97;;
19788;SDS011;10054;59.332;18.244;2022-10-16T10:05:06;3.20;;;2.90;;
19788;SDS011;10054;59.332;18.244;2022-10-16T10:07:38;3.67;;;2.90;;
19788;SDS011;10054;59.332;18.244;2022-10-16T10:10:28;3.80;;;3.07;;
19788;SDS011;10054;59.332;18.244;2022-10-16T10:12:46;4.03;;;2.80;;
19788;SDS011;10054;59.332;18.244;2022-10-16T10:15:14;5.73;;;2.90;;
19788;SDS011;10054;59.332;18.244;2022-10-16T10:17:51;3.33;;;2.80;;
19788;SDS011;10054;59.332;18.244;2022-10-16T10:20:28;4.23;;;2.63;;
19788;SDS011;10054;59.332;18.244;2022-10-16T10:23:20;4.27;;;2.80;;
19788;SDS011;10054;59.332;18.244;2022-10-16T10:28:49;4.60;;;2.93;;
19788;SDS011;10054;59.332;18.244;2022-10-16T10:31:45;3.27;;;2.53;;
19788;SDS011;10054;59.332;18.244;2022-10-16T10:46:06;4.37;;;2.63;;
19788;SDS011;10054;59.332;18.244;2022-10-16T10:54:32;4.23;;;2.80;;
19788;SDS011;10054;59.332;18.244;2022-10-16T10:56:59;4.80;;;2.60;;
19788;SDS011;10054;59.332;18.244;2022-10-16T11:02:30;2.83;;;2.50;;
19788;SDS011;10054;59.332;18.244;2022-10-16T11:05:04;6.03;;;2.90;;
19788;SDS011;10054;59.332;18.244;2022-10-16T11:07:58;5.23;;;2.73;;
19788;SDS011;10054;59.332;18.244;2022-10-16T11:10:37;5.33;;;2.83;;
19788;SDS011;10054;59.332;18.244;2022-10-16T11:13:10;4.73;;;2.40;;
19788;SDS011;10054;59.332;18.244;2022-10-16T11:15:40;4.17;;;2.83;;
19788;SDS011;10054;59.332;18.244;2022-10-16T11:18:15;4.53;;;2.80;;
19788;SDS011;10054;59.332;18.244;2022-10-16T11:20:57;4.70;;;2.70;;
19788;SDS011;10054;59.332;18.244;2022-10-16T11:26:00;5.57;;;2.53;;
19788;SDS011;10054;59.332;18.244;2022-10-16T11:28:34;3.83;;;2.17;;
19788;SDS011;10054;59.332;18.244;2022-10-16T11:36:27;3.30;;;2.60;;
19788;SDS011;10054;59.332;18.244;2022-10-16T11:39:03;3.67;;;2.53;;
19788;SDS011;10054;59.332;18.244;2022-10-16T11:41:51;4.63;;;2.43;;
19788;SDS011;10054;59.332;18.244;2022-10-16T11:44:34;6.50;;;3.00;;
19788;SDS011;10054;59.332;18.244;2022-10-16T11:49:41;6.40;;;3.10;;
19788;SDS011;10054;59.332;18.244;2022-10-16T11:52:15;4.93;;;3.50;;
19788;SDS011;10054;59.332;18.244;2022-10-16T11:57:39;7.30;;;3.70;;
19788;SDS011;10054;59.332;18.244;2022-10-16T12:00:14;6.20;;;3.80;;
19788;SDS011;10054;59.332;18.244;2022-10-16T12:08:08;6.47;;;3.40;;
19788;SDS011;10054;59.332;18.244;2022-10-16T12:10:44;5.93;;;3.40;;
19788;SDS011;10054;59.332;18.244;2022-10-16T12:13:28;8.03;;;3.60;;
19788;SDS011;10054;59.332;18.244;2022-10-16T12:18:45;5.03;;;2.57;;
19788;SDS011;10054;59.332;18.244;2022-10-16T12:21:14;6.53;;;2.83;;
19788;SDS011;10054;59.332;18.244;2022-10-16T12:23:49;3.03;;;2.63;;
19788;SDS011;10054;59.332;18.244;2022-10-16T12:26:26;5.00;;;2.77;;
19788;SDS011;10054;59.332;18.244;2022-10-16T12:29:09;3.70;;;2.80;;
19788;SDS011;10054;59.332;18.244;2022-10-16T12:31:47;3.47;;;2.93;;
19788;SDS011;10054;59.332;18.244;2022-10-16T12:34:26;4.00;;;3.10;;
19788;SDS011;10054;59.332;18.244;2022-10-16T12:36:56;5.47;;;4.57;;
19788;SDS011;10054;59.332;18.244;2022-10-16T12:39:27;7.77;;;5.20;;
19788;SDS011;10054;59.332;18.244;2022-10-16T12:42:03;5.23;;;4.27;;
19788;SDS011;10054;59.332;18.244;2022-10-16T12:44:34;13.23;;;10.10;;
19788;SDS011;10054;59.332;18.244;2022-10-16T12:47:03;10.17;;;7.90;;
19788;SDS011;10054;59.332;18.244;2022-10-16T12:49:36;7.53;;;5.10;;
19788;SDS011;10054;59.332;18.244;2022-10-16T12:52:23;4.40;;;3.30;;
19788;SDS011;10054;59.332;18.244;2022-10-16T12:54:56;6.77;;;4.00;;
19788;SDS011;10054;59.332;18.244;2022-10-16T13:00:28;8.63;;;5.67;;
19788;SDS011;10054;59.332;18.244;2022-10-16T13:05:50;4.40;;;3.23;;
19788;SDS011;10054;59.332;18.244;2022-10-16T13:13:32;3.97;;;3.47;;
19788;SDS011;10054;59.332;18.244;2022-10-16T13:16:07;5.23;;;3.17;;
19788;SDS011;10054;59.332;18.244;2022-10-16T13:21:27;2.97;;;2.67;;
19788;SDS011;10054;59.332;18.244;2022-10-16T13:24:18;5.10;;;2.50;;
19788;SDS011;10054;59.332;18.244;2022-10-16T13:26:53;3.30;;;2.73;;
19788;SDS011;10054;59.332;18.244;2022-10-16T13:29:30;6.77;;;3.23;;
19788;SDS011;10054;59.332;18.244;2022-10-16T13:32:06;5.70;;;3.77;;
19788;SDS011;10054;59.332;18.244;2022-10-16T13:34:43;5.67;;;3.90;;
19788;SDS011;10054;59.332;18.244;2022-10-16T13:37:23;9.23;;;5.07;;
19788;SDS011;10054;59.332;18.244;2022-10-16T13:40:02;9.03;;;4.83;;
19788;SDS011;10054;59.332;18.244;2022-10-16T13:42:30;6.73;;;4.10;;
19788;SDS011;10054;59.332;18.244;2022-10-16T13:45:00;6.40;;;3.60;;
19788;SDS011;10054;59.332;18.244;2022-10-16T13:47:29;5.27;;;2.63;;
19788;SDS011;10054;59.332;18.244;2022-10-16T13:50:04;3.93;;;2.93;;
19788;SDS011;10054;59.332;18.244;2022-10-16T13:52:43;3.47;;;2.20;;
19788;SDS011;10054;59.332;18.244;2022-10-16T13:55:17;4.27;;;2.20;;
19788;SDS011;10054;59.332;18.244;2022-10-16T13:57:46;3.20;;;1.80;;
19788;SDS011;10054;59.332;18.244;2022-10-16T14:03:15;5.03;;;2.70;;
19788;SDS011;10054;59.332;18.244;2022-10-16T14:05:49;4.10;;;2.30;;
19788;SDS011;10054;59.332;18.244;2022-10-16T14:08:19;3.07;;;2.10;;
19788;SDS011;10054;59.332;18.244;2022-10-16T14:10:54;3.10;;;1.93;;
19788;SDS011;10054;59.332;18.244;2022-10-16T14:13:28;4.67;;;2.10;;
19788;SDS011;10054;59.332;18.244;2022-10-16T14:15:58;3.37;;;2.00;;
19788;SDS011;10054;59.332;18.244;2022-10-16T14:18:29;7.10;;;2.10;;
19788;SDS011;10054;59.332;18.244;2022-10-16T14:21:05;4.37;;;1.87;;
19788;SDS011;10054;59.332;18.244;2022-10-16T14:23:36;4.17;;;2.00;;
19788;SDS011;10054;59.332;18.244;2022-10-16T14:28:41;3.80;;;1.90;;
19788;SDS011;10054;59.332;18.244;2022-10-16T14:31:25;3.77;;;1.53;;
19788;SDS011;10054;59.332;18.244;2022-10-16T14:33:59;3.30;;;1.73;;
19788;SDS011;10054;59.332;18.244;2022-10-16T14:36:27;2.03;;;1.87;;
19788;SDS011;10054;59.332;18.244;2022-10-16T14:38:59;3.33;;;1.87;;
19788;SDS011;10054;59.332;18.244;2022-10-16T14:41:30;2.63;;;1.70;;
19788;SDS011;10054;59.332;18.244;2022-10-16T14:44:02;6.23;;;2.17;;
19788;SDS011;10054;59.332;18.244;2022-10-16T14:46:36;3.93;;;1.93;;
19788;SDS011;10054;59.332;18.244;2022-10-16T14:49:15;2.17;;;1.70;;
19788;SDS011;10054;59.332;18.244;2022-10-16T14:51:46;3.13;;;2.00;;
19788;SDS011;10054;59.332;18.244;2022-10-16T14:54:16;4.33;;;2.20;;
19788;SDS011;10054;59.332;18.244;2022-10-16T14:56:47;3.43;;;1.90;;
19788;SDS011;10054;59.332;18.244;2022-10-16T14:59:36;5.50;;;1.80;;
19788;SDS011;10054;59.332;18.244;2022-10-16T15:04:50;3.77;;;1.80;;
19788;SDS011;10054;59.332;18.244;2022-10-16T15:07:19;3.37;;;1.67;;
19788;SDS011;10054;59.332;18.244;2022-10-16T15:09:48;2.80;;;1.80;;
19788;SDS011;10054;59.332;18.244;2022-10-16T15:12:17;5.40;;;2.00;;
19788;SDS011;10054;59.332;18.244;2022-10-16T15:14:46;4.30;;;2.00;;
19788;SDS011;10054;59.332;18.244;2022-10-16T15:17:15;3.20;;;1.70;;
19788;SDS011;10054;59.332;18.244;2022-10-16T15:19:44;2.50;;;1.97;;
19788;SDS011;10054;59.332;18.244;2022-10-16T15:22:13;2.47;;;1.77;;
19788;SDS011;10054;59.332;18.244;2022-10-16T15:24:42;6.10;;;2.00;;
19788;SDS011;10054;59.332;18.244;2022-10-16T15:27:11;3.80;;;1.70;;
19788;SDS011;10054;59.332;18.244;2022-10-16T15:29:39;3.63;;;2.10;;
19788;SDS011;10054;59.332;18.244;2022-10-16T15:32:10;4.57;;;2.13;;
19788;SDS011;10054;59.332;18.244;2022-10-16T15:34:38;8.93;;;2.40;;
19788;SDS011;10054;59.332;18.244;2022-10-16T15:37:08;8.50;;;3.43;;
19788;SDS011;10054;59.332;18.244;2022-10-16T15:39:38;3.10;;;1.40;;
19788;SDS011;10054;59.332;18.244;2022-10-16T15:42:07;4.37;;;1.37;;
19788;SDS011;10054;59.332;18.244;2022-10-16T15:44:36;3.30;;;1.30;;
19788;SDS011;10054;59.332;18.244;2022-10-16T15:47:05;2.17;;;1.07;;
19788;SDS011;10054;59.332;18.244;2022-10-16T15:49:35;2.07;;;1.03;;
19788;SDS011;10054;59.332;18.244;2022-10-16T15:52:04;2.60;;;1.17;;
19788;SDS011;10054;59.332;18.244;2022-10-16T15:54:32;1.70;;;1.07;;
19788;SDS011;10054;59.332;18.244;2022-10-16T15:57:01;2.63;;;0.90;;
19788;SDS011;10054;59.332;18.244;2022-10-16T15:59:30;4.77;;;1.17;;
19788;SDS011;10054;59.332;18.244;2022-10-16T16:01:59;3.00;;;1.17;;
19788;SDS011;10054;59.332;18.244;2022-10-16T16:04:30;2.00;;;0.90;;
19788;SDS011;10054;59.332;18.244;2022-10-16T16:06:59;2.17;;;1.50;;
19788;SDS011;10054;59.332;18.244;2022-10-16T16:09:31;3.33;;;1.40;;
19788;SDS011;10054;59.332;18.244;2022-10-16T16:12:01;2.53;;;1.27;;
19788;SDS011;10054;59.332;18.244;2022-10-16T16:14:30;3.23;;;1.10;;
19788;SDS011;10054;59.332;18.244;2022-10-16T16:16:58;3.43;;;0.93;;
19788;SDS011;10054;59.332;18.244;2022-10-16T16:19:30;2.77;;;1.40;;